createdAt,value
2023-05-11T00:00:19.429Z,15.24
2023-05-11T00:02:24.503Z,15.22
2023-05-11T00:04:32.102Z,15.23
2023-05-11T00:06:37.009Z,15.21
2023-05-11T00:08:41.907Z,15.24
2023-05-11T00:10:50.348Z,15.25
2023-05-11T00:12:55.193Z,15.26
2023-05-11T00:15:00.180Z,15.26
2023-05-11T00:17:05.163Z,15.24
2023-05-11T00:19:09.874Z,15.20
2023-05-11T00:21:17.382Z,15.19
2023-05-11T00:23:22.540Z,15.20
2023-05-11T00:25:27.571Z,15.20
2023-05-11T00:27:32.428Z,15.17
2023-05-11T00:29:37.358Z,15.15
2023-05-11T00:31:48.085Z,15.16
2023-05-11T00:33:54.655Z,15.16
2023-05-11T00:35:59.606Z,15.16
2023-05-11T00:38:07.277Z,15.17
2023-05-11T00:40:12.869Z,15.21
2023-05-11T00:42:18.567Z,15.21
2023-05-11T00:44:23.596Z,15.19
2023-05-11T00:46:29.597Z,15.20
2023-05-11T00:48:34.718Z,15.16
2023-05-11T00:50:42.117Z,15.17
2023-05-11T00:52:47.582Z,15.21
2023-05-11T00:54:55.151Z,15.22
2023-05-11T00:57:00.322Z,15.21
2023-05-11T00:59:05.444Z,15.22
2023-05-11T01:01:10.631Z,15.19
2023-05-11T01:03:15.970Z,15.15
2023-05-11T01:05:20.708Z,15.12
2023-05-11T01:07:32.595Z,15.12
2023-05-11T01:09:47.717Z,15.14
2023-05-11T01:12:06.748Z,15.14
2023-05-11T01:14:17.976Z,15.15
2023-05-11T01:16:27.210Z,15.11
2023-05-11T01:18:41.485Z,15.11
2023-05-11T01:20:52.754Z,15.11
2023-05-11T01:23:15.532Z,15.12
2023-05-11T01:25:54.580Z,15.12
2023-05-11T01:28:25.281Z,15.10
2023-05-11T01:30:38.991Z,15.08
2023-05-11T01:32:45.921Z,15.07
2023-05-11T01:34:55.238Z,15.08
2023-05-11T01:37:03.701Z,15.05
2023-05-11T01:39:14.254Z,15.07
2023-05-11T01:41:23.655Z,15.07
2023-05-11T01:43:30.919Z,15.09
2023-05-11T01:45:43.879Z,15.11
2023-05-11T01:47:53.859Z,15.08
2023-05-11T01:50:01.079Z,15.09
2023-05-11T01:52:07.495Z,15.09
2023-05-11T01:54:14.484Z,14.98
2023-05-11T01:56:22.928Z,14.94
2023-05-11T01:58:30.062Z,14.91
2023-05-11T02:00:40.184Z,14.94
2023-05-11T02:02:48.018Z,14.94
2023-05-11T02:04:53.750Z,15.00
2023-05-11T02:07:02.053Z,14.99
2023-05-11T02:09:08.318Z,14.92
2023-05-11T02:11:14.363Z,14.93
2023-05-11T02:13:21.903Z,14.90
2023-05-11T02:15:28.144Z,14.87
2023-05-11T02:17:37.183Z,14.86
2023-05-11T02:19:45.132Z,14.84
2023-05-11T02:21:52.374Z,14.82
2023-05-11T02:23:58.056Z,14.85
2023-05-11T02:26:03.852Z,14.81
2023-05-11T02:28:08.870Z,14.79
2023-05-11T02:30:14.088Z,14.71
2023-05-11T02:32:23.104Z,14.67
2023-05-11T02:34:32.069Z,14.74
2023-05-11T02:36:40.725Z,14.65
2023-05-11T02:38:49.096Z,14.54
2023-05-11T02:41:00.556Z,14.44
2023-05-11T02:43:11.912Z,14.43
2023-05-11T02:45:23.537Z,14.39
2023-05-11T02:47:32.154Z,14.39
2023-05-11T02:49:41.084Z,14.39
2023-05-11T02:51:49.293Z,14.48
2023-05-11T02:53:57.420Z,14.56
2023-05-11T02:56:08.111Z,14.54
2023-05-11T02:58:14.288Z,14.61
2023-05-11T03:00:23.664Z,14.58
2023-05-11T03:02:29.058Z,14.50
2023-05-11T03:04:34.540Z,14.54
2023-05-11T03:06:42.137Z,14.57
2023-05-11T03:08:48.112Z,14.50
2023-05-11T03:10:55.350Z,14.40
2023-05-11T03:13:02.100Z,14.33
2023-05-11T03:15:12.217Z,14.25
2023-05-11T03:17:19.909Z,14.16
2023-05-11T03:19:25.794Z,14.15
2023-05-11T03:21:32.315Z,14.16
2023-05-11T03:23:42.584Z,14.24
2023-05-11T03:25:48.339Z,14.30
2023-05-11T03:27:56.350Z,14.30
2023-05-11T03:30:03.181Z,14.27
2023-05-11T03:32:13.002Z,14.21
2023-05-11T03:34:18.993Z,14.19
2023-05-11T03:36:28.419Z,14.22
2023-05-11T03:38:34.038Z,14.32
2023-05-11T03:40:44.087Z,14.26
2023-05-11T03:42:49.804Z,14.27
2023-05-11T03:44:58.669Z,14.26
2023-05-11T03:47:06.436Z,14.19
2023-05-11T03:49:13.744Z,14.23
2023-05-11T03:51:20.217Z,14.27
2023-05-11T03:53:24.984Z,14.23
2023-05-11T03:55:30.026Z,14.16
2023-05-11T03:57:37.614Z,14.08
2023-05-11T03:59:44.274Z,13.99
2023-05-11T04:01:53.166Z,13.96
2023-05-11T04:03:58.407Z,13.85
2023-05-11T04:06:03.690Z,13.86
2023-05-11T04:08:08.864Z,13.76
2023-05-11T04:10:14.409Z,13.72
2023-05-11T04:12:22.037Z,13.78
2023-05-11T04:14:29.664Z,13.86
2023-05-11T04:16:34.646Z,13.83
2023-05-11T04:18:41.484Z,13.76
2023-05-11T04:20:46.377Z,13.72
2023-05-11T04:22:51.318Z,13.73
2023-05-11T04:24:56.287Z,13.83
2023-05-11T04:27:01.198Z,13.79
2023-05-11T04:29:06.222Z,13.82
2023-05-11T04:31:13.816Z,13.82
2023-05-11T04:33:18.909Z,13.88
2023-05-11T04:35:25.022Z,13.92
2023-05-11T04:37:30.707Z,13.96
2023-05-11T04:39:36.167Z,13.94
2023-05-11T04:41:41.422Z,13.90
2023-05-11T04:43:47.242Z,13.86
2023-05-11T04:45:52.203Z,13.78
2023-05-11T04:48:07.724Z,13.81
2023-05-11T04:50:13.948Z,13.84
2023-05-11T04:52:18.980Z,13.86
2023-05-11T04:54:27.169Z,13.85
2023-05-11T04:56:32.798Z,13.81
2023-05-11T04:58:38.407Z,13.88
2023-05-11T05:00:43.473Z,13.85
2023-05-11T05:02:48.883Z,13.87
2023-05-11T05:04:56.402Z,13.89
2023-05-11T05:07:01.705Z,13.93
2023-05-11T05:09:07.147Z,13.98
2023-05-11T05:11:12.601Z,13.77
2023-05-11T05:13:18.587Z,13.71
2023-05-11T05:15:23.779Z,13.75
2023-05-11T05:17:28.460Z,13.72
2023-05-11T05:19:33.538Z,13.69
2023-05-11T05:21:41.427Z,13.63
2023-05-11T05:23:46.558Z,13.65
2023-05-11T05:25:51.509Z,13.72
2023-05-11T05:27:56.502Z,13.76
2023-05-11T05:30:01.516Z,13.80
2023-05-11T05:32:07.324Z,13.81
2023-05-11T05:34:14.714Z,13.76
2023-05-11T05:36:21.490Z,13.68
2023-05-11T05:38:29.090Z,13.67
2023-05-11T05:40:37.719Z,13.73
2023-05-11T05:42:43.261Z,13.78
2023-05-11T05:44:52.514Z,13.80
2023-05-11T05:46:58.668Z,13.79
2023-05-11T05:49:07.829Z,13.74
2023-05-11T05:51:14.136Z,13.68
2023-05-11T05:53:21.388Z,13.56
2023-05-11T05:55:29.241Z,13.56
2023-05-11T05:57:35.519Z,13.51
2023-05-11T05:59:41.766Z,13.36
2023-05-11T06:01:47.676Z,13.33
2023-05-11T06:03:54.167Z,13.35
2023-05-11T06:05:58.978Z,13.35
2023-05-11T06:08:10.528Z,13.43
2023-05-11T06:10:16.670Z,13.34
2023-05-11T06:12:25.604Z,13.30
2023-05-11T06:14:32.737Z,13.41
2023-05-11T06:16:38.726Z,13.47
2023-05-11T06:18:43.496Z,13.29
2023-05-11T06:20:49.082Z,13.32
2023-05-11T06:22:56.100Z,13.43
2023-05-11T06:25:00.901Z,13.43
2023-05-11T06:27:07.213Z,13.33
2023-05-11T06:29:15.477Z,13.48
2023-05-11T06:31:24.633Z,13.59
2023-05-11T06:33:30.623Z,13.67
2023-05-11T06:35:36.462Z,13.78
2023-05-11T06:37:43.208Z,13.94
2023-05-11T06:39:48.358Z,14.10
2023-05-11T06:41:56.303Z,14.20
2023-05-11T06:44:02.027Z,14.24
2023-05-11T06:46:19.209Z,14.13
2023-05-11T06:48:26.152Z,14.21
2023-05-11T06:50:31.225Z,14.20
2023-05-11T06:52:35.962Z,13.96
2023-05-11T06:54:41.025Z,13.94
2023-05-11T06:56:47.907Z,14.04
2023-05-11T06:58:52.790Z,14.07
2023-05-11T07:00:58.012Z,13.93
2023-05-11T07:03:05.448Z,13.83
2023-05-11T07:05:12.444Z,13.89
2023-05-11T07:07:17.576Z,13.91
2023-05-11T07:09:25.682Z,13.85
2023-05-11T07:11:30.694Z,13.76
2023-05-11T07:13:35.505Z,13.62
2023-05-11T07:15:40.495Z,13.58
2023-05-11T07:17:47.990Z,13.68
2023-05-11T07:19:55.745Z,13.76
2023-05-11T07:22:02.045Z,13.72
2023-05-11T07:24:07.298Z,13.74
2023-05-11T07:26:12.215Z,13.70
2023-05-11T07:28:17.075Z,13.55
2023-05-11T07:30:24.993Z,13.38
2023-05-11T07:32:30.246Z,13.45
2023-05-11T07:34:37.879Z,13.44
2023-05-11T07:36:46.660Z,13.54
2023-05-11T07:38:51.648Z,13.62
2023-05-11T07:40:56.627Z,13.63
2023-05-11T07:43:02.031Z,13.75
2023-05-11T07:45:07.454Z,13.76
2023-05-11T07:47:13.519Z,13.81
2023-05-11T07:49:25.133Z,13.91
2023-05-11T07:51:36.293Z,13.71
2023-05-11T07:53:43.761Z,13.70
2023-05-11T07:55:48.656Z,13.84
2023-05-11T07:57:54.354Z,13.82
2023-05-11T07:59:59.289Z,13.85
2023-05-11T08:02:04.413Z,14.02
2023-05-11T08:04:09.071Z,14.04
2023-05-11T08:06:14.121Z,13.98
2023-05-11T08:08:18.980Z,13.98
2023-05-11T08:10:26.688Z,14.07
2023-05-11T08:12:31.738Z,14.08
2023-05-11T08:14:36.822Z,14.14
2023-05-11T08:16:41.575Z,14.18
2023-05-11T08:18:47.376Z,14.28
2023-05-11T08:20:52.503Z,14.42
2023-05-11T08:22:58.046Z,14.24
2023-05-11T08:25:03.919Z,14.16
2023-05-11T08:27:11.400Z,14.17
2023-05-11T08:29:16.308Z,14.08
2023-05-11T08:31:21.854Z,13.94
2023-05-11T08:35:35.650Z,13.74
2023-05-11T08:37:40.603Z,13.71
2023-05-11T08:39:47.861Z,13.76
2023-05-11T08:41:54.046Z,13.72
2023-05-11T08:44:03.613Z,13.78
2023-05-11T08:46:10.264Z,13.83
2023-05-11T08:48:15.644Z,13.86
2023-05-11T08:50:20.790Z,13.85
2023-05-11T08:52:25.599Z,13.89
2023-05-11T08:54:30.678Z,13.91
2023-05-11T08:56:37.454Z,13.88
2023-05-11T08:58:43.554Z,13.96
2023-05-11T09:00:52.415Z,14.00
2023-05-11T09:02:58.369Z,13.96
2023-05-11T09:05:05.172Z,13.90
2023-05-11T09:07:10.544Z,13.92
2023-05-11T09:09:15.301Z,13.78
2023-05-11T09:11:20.241Z,13.86
2023-05-11T09:13:25.988Z,13.86
2023-05-11T09:15:36.950Z,13.80
2023-05-11T09:17:44.966Z,13.86
2023-05-11T09:20:05.608Z,13.95
2023-05-11T09:22:10.802Z,14.07
2023-05-11T09:24:16.105Z,14.14
2023-05-11T09:26:24.609Z,14.13
2023-05-11T09:28:36.027Z,14.21
2023-05-11T09:30:41.211Z,14.19
2023-05-11T09:32:56.255Z,14.26
2023-05-11T09:35:01.608Z,14.33
2023-05-11T09:37:06.730Z,14.30
2023-05-11T09:39:15.697Z,14.30
2023-05-11T09:41:23.481Z,14.30
2023-05-11T09:43:29.969Z,14.38
2023-05-11T09:45:39.092Z,14.45
2023-05-11T09:47:44.106Z,14.39
2023-05-11T09:49:51.729Z,14.36
2023-05-11T09:52:04.050Z,14.42
2023-05-11T09:54:21.888Z,14.45
2023-05-11T09:56:26.778Z,14.43
2023-05-11T09:58:47.934Z,14.34
2023-05-11T10:00:53.982Z,14.22
2023-05-11T10:03:03.369Z,14.11
2023-05-11T10:05:19.295Z,14.01
2023-05-11T10:07:32.675Z,13.79
2023-05-11T10:09:38.776Z,13.75
2023-05-11T10:11:48.140Z,13.72
2023-05-11T10:13:54.237Z,13.78
2023-05-11T10:16:02.231Z,13.90
2023-05-11T10:18:07.992Z,13.87
2023-05-11T10:20:16.116Z,13.84
2023-05-11T10:22:21.641Z,13.77
2023-05-11T10:24:27.013Z,13.63
2023-05-11T10:26:34.501Z,13.54
2023-05-11T10:28:40.153Z,13.56
2023-05-11T10:30:46.231Z,13.68
2023-05-11T10:32:52.014Z,13.83
2023-05-11T10:34:59.359Z,14.00
2023-05-11T10:37:07.848Z,14.03
2023-05-11T10:39:12.730Z,13.94
2023-05-11T10:41:32.358Z,13.94
2023-05-11T10:43:58.001Z,14.10
2023-05-11T10:46:18.565Z,14.16
2023-05-11T10:48:52.558Z,14.23
2023-05-11T10:51:15.187Z,14.32
2023-05-11T10:53:49.300Z,14.38
2023-05-11T10:56:16.899Z,14.29
2023-05-11T10:58:40.525Z,14.20
2023-05-11T11:01:15.556Z,14.04
2023-05-11T11:03:20.770Z,13.99
2023-05-11T11:05:36.514Z,13.98
2023-05-11T11:07:58.772Z,13.98
2023-05-11T11:10:07.583Z,14.14
2023-05-11T11:12:13.490Z,14.04
2023-05-11T11:14:21.661Z,14.17
2023-05-11T11:16:26.627Z,14.03
2023-05-11T11:18:36.308Z,13.94
2023-05-11T11:20:52.517Z,13.91
2023-05-11T11:22:57.500Z,13.93
2023-05-11T11:25:02.545Z,14.01
2023-05-11T11:27:11.473Z,14.03
2023-05-11T11:29:16.556Z,14.07
2023-05-11T11:31:27.735Z,14.15
2023-05-11T11:33:37.574Z,14.10
2023-05-11T11:35:49.258Z,14.15
2023-05-11T11:38:12.669Z,14.09
2023-05-11T11:40:17.654Z,14.07
2023-05-11T11:42:41.898Z,14.05
2023-05-11T11:44:48.692Z,14.10
2023-05-11T11:47:13.761Z,14.17
2023-05-11T11:49:18.929Z,14.37
2023-05-11T11:51:37.528Z,14.46
2023-05-11T11:54:06.684Z,14.53
2023-05-11T11:56:32.502Z,14.46
2023-05-11T11:59:05.568Z,14.30
2023-05-11T12:01:10.704Z,14.13
2023-05-11T12:03:15.495Z,13.95
2023-05-11T12:05:23.383Z,13.98
2023-05-11T12:07:35.658Z,13.98
2023-05-11T12:09:43.916Z,13.99
2023-05-11T12:11:50.070Z,13.97
2023-05-11T12:13:55.161Z,13.94
2023-05-11T12:16:14.430Z,13.86
2023-05-11T12:18:24.005Z,13.89
2023-05-11T12:20:28.979Z,13.87
2023-05-11T12:22:33.921Z,13.85
2023-05-11T12:24:38.934Z,13.83
2023-05-11T12:26:43.872Z,13.86
2023-05-11T12:28:50.468Z,13.89
2023-05-11T12:31:00.520Z,13.87
2023-05-11T12:33:11.194Z,13.92
2023-05-11T12:35:16.849Z,13.96
2023-05-11T12:37:22.347Z,13.85
2023-05-11T12:39:28.996Z,13.85
2023-05-11T12:41:35.008Z,13.80
2023-05-11T12:43:40.595Z,13.82
2023-05-11T12:45:45.630Z,13.90
2023-05-11T12:47:51.644Z,14.02
2023-05-11T12:49:59.397Z,14.10
2023-05-11T12:52:08.116Z,14.15
2023-05-11T12:54:13.066Z,14.25
2023-05-11T12:56:19.470Z,14.45
2023-05-11T12:58:24.402Z,14.49
2023-05-11T13:00:29.331Z,14.56
2023-05-11T13:02:35.020Z,14.64
2023-05-11T13:04:41.576Z,14.69
2023-05-11T13:06:50.556Z,14.78
2023-05-11T13:08:55.469Z,14.81
2023-05-11T13:11:22.896Z,14.76
2023-05-11T13:13:31.433Z,14.69
2023-05-11T13:15:36.394Z,14.66
2023-05-11T13:17:45.455Z,14.54
2023-05-11T13:19:50.507Z,14.44
2023-05-11T13:21:58.540Z,14.45
2023-05-11T13:24:04.260Z,14.41
2023-05-11T13:26:09.364Z,14.33
2023-05-11T13:28:14.366Z,14.36
2023-05-11T13:30:19.246Z,14.27
2023-05-11T13:32:24.221Z,14.18
2023-05-11T13:34:29.177Z,14.12
2023-05-11T13:36:34.442Z,14.12
2023-05-11T13:38:41.738Z,14.07
2023-05-11T13:40:46.690Z,14.18
2023-05-11T13:42:51.563Z,14.15
2023-05-11T13:44:56.526Z,14.25
2023-05-11T13:47:01.484Z,14.38
2023-05-11T13:49:07.032Z,14.27
2023-05-11T13:51:12.442Z,14.37
2023-05-11T13:53:17.594Z,14.49
2023-05-11T13:55:24.892Z,14.36
2023-05-11T13:57:30.313Z,14.50
2023-05-11T13:59:35.225Z,14.72
2023-05-11T14:01:40.167Z,14.91
2023-05-11T14:03:45.251Z,14.96
2023-05-11T14:05:51.581Z,14.75
2023-05-11T14:07:56.480Z,14.61
2023-05-11T14:10:01.856Z,14.52
2023-05-11T14:12:10.052Z,14.53
2023-05-11T14:14:15.111Z,14.56
2023-05-11T14:16:19.993Z,14.41
2023-05-11T14:18:26.226Z,14.44
2023-05-11T14:20:31.356Z,14.47
2023-05-11T14:22:36.196Z,14.45
2023-05-11T14:24:41.225Z,14.55
2023-05-11T14:26:48.429Z,14.50
2023-05-11T14:28:58.082Z,14.58
2023-05-11T14:31:03.400Z,14.58
2023-05-11T14:33:08.174Z,14.44
2023-05-11T14:35:13.298Z,14.46
2023-05-11T14:37:20.590Z,14.53
2023-05-11T14:39:26.357Z,14.44
2023-05-11T14:41:31.288Z,14.26
2023-05-11T14:43:36.266Z,14.31
2023-05-11T14:45:43.864Z,14.49
2023-05-11T14:47:48.961Z,14.56
2023-05-11T14:49:53.849Z,14.64
2023-05-11T14:51:59.686Z,14.76
2023-05-11T14:54:05.325Z,14.80
2023-05-11T14:56:10.584Z,14.79
2023-05-11T14:58:15.483Z,14.79
2023-05-11T15:00:23.754Z,14.88
2023-05-11T15:02:31.907Z,14.91
2023-05-11T15:04:37.056Z,14.93
2023-05-11T15:06:41.744Z,14.98
2023-05-11T15:08:46.717Z,15.03
2023-05-11T15:10:51.938Z,15.05
2023-05-11T15:12:56.637Z,14.89
2023-05-11T15:15:01.532Z,14.92
2023-05-11T15:17:06.402Z,14.73
2023-05-11T15:19:14.233Z,14.84
2023-05-11T15:21:19.277Z,14.82
2023-05-11T15:23:24.349Z,14.89
2023-05-11T15:25:29.253Z,15.03
2023-05-11T15:27:34.146Z,15.13
2023-05-11T15:29:41.103Z,15.16
2023-05-11T15:31:46.216Z,15.14
2023-05-11T15:33:51.009Z,15.13
2023-05-11T15:35:58.649Z,15.08
2023-05-11T15:38:03.600Z,15.09
2023-05-11T15:40:10.280Z,15.10
2023-05-11T15:42:15.154Z,15.02
2023-05-11T15:44:20.171Z,15.04
2023-05-11T15:46:25.332Z,15.11
2023-05-11T15:48:29.944Z,15.03
2023-05-11T15:50:34.950Z,14.96
2023-05-11T15:52:45.262Z,14.86
2023-05-11T15:54:50.583Z,14.75
2023-05-11T15:56:55.655Z,14.62
2023-05-11T15:59:00.604Z,14.61
2023-05-11T16:01:06.267Z,14.60
2023-05-11T16:03:11.432Z,14.57
2023-05-11T16:05:16.477Z,14.56
2023-05-11T16:07:21.532Z,14.39
2023-05-11T16:09:29.096Z,14.30
2023-05-11T16:11:34.024Z,14.10
2023-05-11T16:13:39.065Z,13.89
2023-05-11T16:15:43.927Z,13.68
2023-05-11T16:17:49.211Z,13.70
2023-05-11T16:19:54.361Z,13.74
2023-05-11T16:21:59.421Z,13.76
2023-05-11T16:24:04.326Z,13.66
2023-05-11T16:26:12.862Z,13.67
2023-05-11T16:28:17.767Z,13.78
2023-05-11T16:30:26.150Z,13.96
2023-05-11T16:32:31.397Z,13.95
2023-05-11T16:34:36.337Z,13.93
2023-05-11T16:36:41.310Z,13.91
2023-05-11T16:38:47.129Z,13.94
2023-05-11T16:40:52.784Z,13.99
2023-05-11T16:43:02.273Z,14.04
2023-05-11T16:45:08.279Z,14.09
2023-05-11T16:47:13.204Z,14.15
2023-05-11T16:49:18.079Z,14.19
2023-05-11T16:51:23.104Z,14.24
2023-05-11T16:53:28.720Z,14.32
2023-05-11T16:55:33.831Z,14.30
2023-05-11T16:57:38.797Z,14.12
2023-05-11T16:59:46.255Z,14.02
2023-05-11T17:01:51.579Z,13.99
2023-05-11T17:03:56.766Z,13.90
2023-05-11T17:06:01.450Z,13.80
2023-05-11T17:08:06.410Z,13.86
2023-05-11T17:10:13.255Z,13.89
2023-05-11T17:12:18.197Z,13.85
2023-05-11T17:14:23.058Z,13.81
2023-05-11T17:16:30.621Z,13.70
2023-05-11T17:18:35.681Z,13.63
2023-05-11T17:20:40.882Z,13.61
2023-05-11T17:22:45.857Z,13.62
2023-05-11T17:24:50.976Z,13.62
2023-05-11T17:26:56.067Z,13.60
2023-05-11T17:29:01.119Z,13.67
2023-05-11T17:31:10.709Z,13.70
2023-05-11T17:33:20.839Z,13.72
2023-05-11T17:35:26.791Z,13.77
2023-05-11T17:37:32.607Z,13.79
2023-05-11T17:39:37.950Z,13.86
2023-05-11T17:41:45.410Z,13.87
2023-05-11T17:43:50.665Z,13.90
2023-05-11T17:45:55.727Z,13.91
2023-05-11T17:48:00.943Z,13.94
2023-05-11T17:50:09.821Z,14.01
2023-05-11T17:52:14.862Z,14.03
2023-05-11T17:54:22.185Z,14.04
2023-05-11T17:56:27.224Z,14.07
2023-05-11T17:58:32.749Z,14.03
2023-05-11T18:00:38.550Z,14.00
2023-05-11T18:02:43.685Z,14.02
2023-05-11T18:04:48.629Z,14.04
2023-05-11T18:06:56.273Z,13.99
2023-05-11T18:09:01.958Z,14.00
2023-05-11T18:11:07.776Z,13.96
2023-05-11T18:13:13.257Z,13.90
2023-05-11T18:15:19.086Z,13.90
2023-05-11T18:17:30.001Z,13.87
2023-05-11T18:19:35.055Z,13.86
2023-05-11T18:21:40.530Z,13.77
2023-05-11T18:23:48.210Z,13.75
2023-05-11T18:25:53.433Z,13.67
2023-05-11T18:27:59.383Z,13.70
2023-05-11T18:30:04.863Z,13.71
2023-05-11T18:32:09.931Z,13.70
2023-05-11T18:34:14.897Z,13.68
2023-05-11T18:36:21.978Z,13.67
2023-05-11T18:38:27.302Z,13.63
2023-05-11T18:40:35.132Z,13.62
2023-05-11T18:42:40.043Z,13.58
2023-05-11T18:44:45.058Z,13.56
2023-05-11T18:46:50.050Z,13.55
2023-05-11T18:48:55.683Z,13.55
2023-05-11T18:51:00.618Z,13.55
2023-05-11T18:53:05.493Z,13.48
2023-05-11T18:55:11.882Z,13.50
2023-05-11T18:57:21.157Z,13.53
2023-05-11T18:59:26.106Z,13.51
2023-05-11T19:01:40.291Z,13.56
2023-05-11T19:03:52.372Z,13.52
2023-05-11T19:05:57.294Z,13.50
2023-05-11T19:08:02.179Z,13.55
2023-05-11T19:10:08.333Z,13.61
2023-05-11T19:12:13.278Z,13.62
2023-05-11T19:14:20.840Z,13.63
2023-05-11T19:16:26.141Z,13.63
2023-05-11T19:18:32.453Z,13.65
2023-05-11T19:20:39.127Z,13.64
2023-05-11T19:22:44.503Z,13.62
2023-05-11T19:24:49.343Z,13.61
2023-05-11T19:27:06.034Z,13.64
2023-05-11T19:29:14.252Z,13.64
2023-05-11T19:31:23.062Z,13.64
2023-05-11T19:33:28.085Z,13.72
2023-05-11T19:35:33.038Z,13.66
2023-05-11T19:37:37.943Z,13.53
2023-05-11T19:39:44.187Z,13.51
2023-05-11T19:41:49.759Z,13.53
2023-05-11T19:43:54.620Z,13.53
2023-05-11T19:46:00.588Z,13.48
2023-05-11T19:48:08.380Z,13.51
2023-05-11T19:50:14.853Z,13.54
2023-05-11T19:52:20.113Z,13.61
2023-05-11T19:54:25.151Z,13.59
2023-05-11T19:56:30.162Z,13.68
2023-05-11T19:58:35.052Z,13.67
2023-05-11T20:00:41.247Z,13.70
2023-05-11T20:02:46.891Z,13.74
2023-05-11T20:04:54.430Z,13.71
2023-05-11T20:06:59.473Z,13.67
2023-05-11T20:09:05.353Z,13.67
2023-05-11T20:11:10.832Z,13.63
2023-05-11T20:13:16.084Z,13.60
2023-05-11T20:15:21.224Z,13.55
2023-05-11T20:17:26.255Z,13.52
2023-05-11T20:19:31.180Z,13.49
2023-05-11T20:21:38.849Z,13.50
2023-05-11T20:23:44.342Z,13.44
2023-05-11T20:25:50.547Z,13.45
2023-05-11T20:27:55.524Z,13.44
2023-05-11T20:30:00.703Z,13.42
2023-05-11T20:32:05.434Z,13.37
2023-05-11T20:34:10.393Z,13.29
2023-05-11T20:36:15.179Z,13.29
2023-05-11T20:38:22.921Z,13.29
2023-05-11T20:40:28.269Z,13.28
2023-05-11T20:42:33.584Z,13.30
2023-05-11T20:44:38.538Z,13.28
2023-05-11T20:46:43.605Z,13.26
2023-05-11T20:48:51.768Z,13.24
2023-05-11T20:50:58.288Z,13.23
2023-05-11T20:53:03.361Z,13.21
2023-05-11T20:55:11.265Z,13.19
2023-05-11T20:57:16.215Z,13.20
2023-05-11T21:01:29.089Z,13.23
2023-05-11T21:03:34.074Z,13.26
2023-05-11T21:05:38.982Z,13.27
2023-05-11T21:07:43.977Z,13.21
2023-05-11T21:09:48.886Z,13.21
2023-05-11T21:11:56.364Z,13.18
2023-05-11T21:14:01.323Z,13.17
2023-05-11T21:16:07.193Z,13.20
2023-05-11T21:18:12.108Z,13.19
2023-05-11T21:20:17.432Z,13.20
2023-05-11T21:22:22.956Z,13.20
2023-05-11T21:24:28.014Z,13.22
2023-05-11T21:26:32.767Z,13.16
2023-05-11T21:28:40.823Z,13.18
2023-05-11T21:30:45.799Z,13.21
2023-05-11T21:32:50.868Z,13.22
2023-05-11T21:34:55.958Z,13.20
2023-05-11T21:37:00.848Z,13.21
2023-05-11T21:39:05.822Z,13.24
2023-05-11T21:41:11.314Z,13.22
2023-05-11T21:43:16.203Z,13.21
2023-05-11T21:45:24.002Z,13.23
2023-05-11T21:47:29.067Z,13.24
2023-05-11T21:49:36.455Z,13.18
2023-05-11T21:51:41.350Z,13.18
2023-05-11T21:53:46.503Z,13.17
2023-05-11T21:55:51.203Z,13.16
2023-05-11T21:57:56.095Z,13.16
2023-05-11T22:00:01.025Z,13.16
2023-05-11T22:02:08.726Z,13.17
2023-05-11T22:04:14.307Z,13.17
2023-05-11T22:06:19.615Z,13.21
2023-05-11T22:08:24.492Z,13.20
2023-05-11T22:10:29.433Z,13.22
2023-05-11T22:12:34.345Z,13.22
2023-05-11T22:14:39.694Z,13.23
2023-05-11T22:16:45.183Z,13.26
2023-05-11T22:18:52.862Z,13.24
2023-05-11T22:20:57.775Z,13.23
2023-05-11T22:23:02.755Z,13.27
2023-05-11T22:25:08.649Z,13.28
2023-05-11T22:27:16.324Z,13.28
2023-05-11T22:29:23.806Z,13.24
2023-05-11T22:31:29.626Z,13.23
2023-05-11T22:33:34.568Z,13.21
2023-05-11T22:35:42.629Z,13.25
2023-05-11T22:37:47.627Z,13.24
2023-05-11T22:39:52.626Z,13.20
2023-05-11T22:41:57.702Z,13.21
2023-05-11T22:44:02.652Z,13.22
2023-05-11T22:46:07.656Z,13.18
2023-05-11T22:48:12.494Z,13.12
2023-05-11T22:50:17.836Z,13.14
2023-05-11T22:52:25.754Z,13.19
2023-05-11T22:54:30.659Z,13.22
2023-05-11T22:56:35.548Z,13.24
2023-05-11T22:58:40.439Z,13.26
2023-05-11T23:00:46.158Z,13.23
2023-05-11T23:02:51.141Z,13.24
2023-05-11T23:04:56.248Z,13.25
2023-05-11T23:07:01.753Z,13.29
2023-05-11T23:09:09.924Z,13.34
2023-05-11T23:11:15.016Z,13.37
2023-05-11T23:13:19.900Z,13.35
2023-05-11T23:15:24.761Z,13.38
2023-05-11T23:17:29.748Z,13.34
2023-05-11T23:19:35.367Z,13.36
2023-05-11T23:21:40.356Z,13.36
2023-05-11T23:23:45.385Z,13.36
2023-05-11T23:25:52.867Z,13.33
2023-05-11T23:27:57.752Z,13.28
2023-05-11T23:30:02.668Z,13.27
2023-05-11T23:32:08.076Z,13.31
2023-05-11T23:34:12.948Z,13.34
2023-05-11T23:36:17.825Z,13.31
2023-05-11T23:38:22.992Z,13.30
2023-05-11T23:40:28.858Z,13.30
2023-05-11T23:42:36.959Z,13.30
2023-05-11T23:44:42.077Z,13.31
2023-05-11T23:46:47.082Z,13.28
2023-05-11T23:48:52.027Z,13.29
2023-05-11T23:50:57.148Z,13.27
2023-05-11T23:53:01.802Z,13.24
2023-05-11T23:55:08.014Z,13.18
2023-05-11T23:57:13.116Z,13.16
2023-05-11T23:59:20.684Z,13.11
